createdAt,value
2024-02-19T00:00:59.882Z,102.77
2024-02-19T00:03:28.890Z,101.90
2024-02-19T00:05:57.153Z,101.77
2024-02-19T00:08:25.351Z,100.10
2024-02-19T00:10:53.458Z,99.57
2024-02-19T00:13:21.582Z,99.37
2024-02-19T00:15:51.579Z,94.60
2024-02-19T00:18:19.816Z,90.30
2024-02-19T00:20:47.978Z,95.23
2024-02-19T00:23:16.073Z,92.47
2024-02-19T00:25:44.168Z,95.80
2024-02-19T00:28:12.474Z,90.70
2024-02-19T00:30:40.792Z,91.20
2024-02-19T00:33:10.415Z,91.03
2024-02-19T00:35:38.547Z,87.87
2024-02-19T00:38:06.813Z,84.40
2024-02-19T00:40:35.434Z,84.40
2024-02-19T00:43:03.632Z,73.10
2024-02-19T00:45:31.732Z,82.00
2024-02-19T00:47:59.868Z,82.57
2024-02-19T00:50:29.349Z,83.23
2024-02-19T00:52:57.492Z,83.20
2024-02-19T00:55:25.595Z,83.00
2024-02-19T00:57:53.686Z,78.10
2024-02-19T01:00:22.144Z,74.83
2024-02-19T01:02:50.455Z,77.63
2024-02-19T01:05:18.546Z,75.47
2024-02-19T01:07:48.102Z,76.43
2024-02-19T01:10:16.354Z,79.07
2024-02-19T01:12:44.580Z,80.50
2024-02-19T01:15:12.870Z,79.90
2024-02-19T01:17:40.973Z,83.43
2024-02-19T01:20:10.746Z,73.70
2024-02-19T01:22:40.006Z,70.37
2024-02-19T01:25:11.274Z,75.23
2024-02-19T01:27:39.485Z,74.50
2024-02-19T01:30:08.876Z,72.47
2024-02-19T01:32:39.128Z,75.53
2024-02-19T01:35:09.516Z,74.00
2024-02-19T01:37:37.779Z,76.13
2024-02-19T01:40:09.267Z,68.93
2024-02-19T01:42:38.814Z,71.90
2024-02-19T01:45:09.691Z,65.93
2024-02-19T01:47:38.105Z,65.60
2024-02-19T01:50:06.949Z,68.83
2024-02-19T01:52:35.194Z,66.50
2024-02-19T01:55:03.444Z,65.67
2024-02-19T01:57:31.759Z,68.87
2024-02-19T02:00:01.281Z,70.13
2024-02-19T02:02:29.372Z,61.37
2024-02-19T02:04:57.569Z,68.90
2024-02-19T02:07:26.536Z,68.80
2024-02-19T02:09:56.397Z,67.87
2024-02-19T02:12:24.726Z,68.83
2024-02-19T02:14:52.852Z,69.83
2024-02-19T02:17:22.323Z,74.00
2024-02-19T02:19:50.616Z,70.70
2024-02-19T02:22:19.022Z,69.20
2024-02-19T02:24:47.162Z,70.90
2024-02-19T02:27:17.586Z,74.90
2024-02-19T02:29:45.709Z,72.87
2024-02-19T02:32:13.797Z,75.33
2024-02-19T02:34:41.915Z,74.27
2024-02-19T02:37:10.105Z,82.17
2024-02-19T02:39:38.193Z,78.13
2024-02-19T02:42:06.664Z,80.10
2024-02-19T02:44:36.333Z,74.27
2024-02-19T02:47:04.542Z,80.97
2024-02-19T02:49:32.723Z,77.83
2024-02-19T02:52:00.862Z,81.53
2024-02-19T02:54:28.970Z,82.67
2024-02-19T02:56:57.053Z,86.77
2024-02-19T02:59:25.159Z,86.47
2024-02-19T03:01:54.689Z,89.00
2024-02-19T03:04:23.086Z,88.37
2024-02-19T03:06:51.352Z,86.20
2024-02-19T03:09:19.593Z,95.87
2024-02-19T03:11:47.688Z,96.87
2024-02-19T03:14:17.829Z,95.80
2024-02-19T03:16:46.018Z,95.37
2024-02-19T03:19:16.009Z,95.93
2024-02-19T03:21:44.213Z,83.20
2024-02-19T03:24:12.337Z,88.87
2024-02-19T03:26:41.754Z,86.63
2024-02-19T03:29:15.045Z,80.30
2024-02-19T03:31:45.030Z,80.80
2024-02-19T03:34:13.339Z,79.97
2024-02-19T03:36:46.356Z,85.10
2024-02-19T03:39:14.713Z,87.07
2024-02-19T03:41:42.823Z,91.37
2024-02-19T03:44:10.891Z,86.57
2024-02-19T03:46:39.097Z,91.27
2024-02-19T03:49:07.288Z,85.20
2024-02-19T03:51:35.616Z,77.67
2024-02-19T03:54:05.255Z,81.03
2024-02-19T03:56:33.534Z,81.20
2024-02-19T03:59:01.622Z,80.93
2024-02-19T04:01:29.842Z,75.43
2024-02-19T04:03:58.182Z,72.53
2024-02-19T04:06:26.381Z,68.60
2024-02-19T04:08:54.483Z,72.67
2024-02-19T04:11:24.146Z,72.80
2024-02-19T04:13:52.264Z,68.83
2024-02-19T04:16:20.414Z,73.37
2024-02-19T04:18:48.699Z,72.33
2024-02-19T04:21:16.860Z,74.07
2024-02-19T04:23:44.989Z,76.67
2024-02-19T04:26:13.071Z,72.33
2024-02-19T04:28:42.502Z,66.40
2024-02-19T04:31:10.633Z,67.23
2024-02-19T04:33:38.837Z,65.43
2024-02-19T04:36:09.389Z,67.57
2024-02-19T04:38:37.510Z,65.37
2024-02-19T04:41:05.843Z,65.53
2024-02-19T04:43:33.927Z,64.63
2024-02-19T04:46:06.344Z,66.73
2024-02-19T04:48:36.789Z,69.37
2024-02-19T04:51:06.513Z,63.93
2024-02-19T04:53:35.421Z,63.27
2024-02-19T04:56:03.550Z,65.83
2024-02-19T04:58:31.683Z,63.13
2024-02-19T05:00:59.837Z,64.63
2024-02-19T05:03:29.321Z,68.00
2024-02-19T05:05:57.457Z,65.20
2024-02-19T05:08:25.599Z,66.93
2024-02-19T05:10:54.003Z,70.27
2024-02-19T05:13:22.138Z,72.30
2024-02-19T05:15:50.305Z,69.37
2024-02-19T05:18:18.487Z,67.07
2024-02-19T05:20:48.199Z,68.00
2024-02-19T05:23:17.336Z,72.03
2024-02-19T05:25:45.476Z,71.93
2024-02-19T05:28:13.668Z,62.73
2024-02-19T05:30:41.801Z,70.50
2024-02-19T05:33:09.896Z,72.50
2024-02-19T05:35:38.128Z,68.67
2024-02-19T05:38:07.728Z,64.77
2024-02-19T05:40:35.827Z,63.13
2024-02-19T05:43:03.946Z,70.30
2024-02-19T05:45:32.248Z,69.60
2024-02-19T05:48:00.773Z,64.53
2024-02-19T05:50:31.457Z,68.77
2024-02-19T05:52:59.639Z,67.77
2024-02-19T05:55:29.377Z,66.00
2024-02-19T05:57:57.654Z,66.13
2024-02-19T06:00:25.857Z,66.73
2024-02-19T06:02:54.070Z,65.03
2024-02-19T06:05:22.254Z,67.27
2024-02-19T06:07:50.350Z,67.50
2024-02-19T06:10:18.710Z,62.73
2024-02-19T06:12:48.272Z,66.30
2024-02-19T06:15:16.794Z,61.77
2024-02-19T06:17:44.940Z,66.10
2024-02-19T06:20:13.625Z,65.47
2024-02-19T06:22:41.801Z,69.37
2024-02-19T06:25:11.325Z,69.87
2024-02-19T06:27:39.580Z,62.13
2024-02-19T06:30:10.221Z,69.17
2024-02-19T06:32:38.369Z,59.27
2024-02-19T06:35:07.253Z,60.17
2024-02-19T06:37:35.476Z,66.53
2024-02-19T06:40:03.681Z,63.37
2024-02-19T06:42:31.832Z,68.23
2024-02-19T06:44:59.943Z,67.13
2024-02-19T06:47:29.853Z,67.87
2024-02-19T06:49:57.964Z,60.13
2024-02-19T06:52:26.123Z,63.73
2024-02-19T06:54:54.917Z,62.60
2024-02-19T06:57:23.078Z,65.53
2024-02-19T06:59:51.162Z,73.97
2024-02-19T07:02:19.615Z,75.10
2024-02-19T07:04:49.276Z,76.17
2024-02-19T07:07:17.581Z,75.67
2024-02-19T07:09:45.702Z,73.83
2024-02-19T07:12:13.859Z,75.23
2024-02-19T07:14:41.977Z,76.80
2024-02-19T07:17:11.522Z,71.30
2024-02-19T07:19:39.856Z,78.73
2024-02-19T07:22:09.481Z,77.80
2024-02-19T07:24:39.628Z,80.50
2024-02-19T07:27:07.744Z,80.70
2024-02-19T07:29:35.856Z,81.30
2024-02-19T07:32:04.037Z,82.13
2024-02-19T07:34:32.255Z,83.37
2024-02-19T07:37:00.402Z,80.50
2024-02-19T07:39:29.921Z,79.80
2024-02-19T07:41:58.058Z,71.50
2024-02-19T07:44:26.136Z,68.47
2024-02-19T07:46:54.225Z,68.97
2024-02-19T07:49:22.435Z,67.17
2024-02-19T07:51:50.705Z,70.30
2024-02-19T07:54:18.884Z,66.00
2024-02-19T07:56:48.340Z,68.27
2024-02-19T07:59:16.608Z,69.27
2024-02-19T08:01:44.798Z,62.10
2024-02-19T08:04:13.033Z,74.77
2024-02-19T08:06:41.243Z,58.80
2024-02-19T08:09:09.779Z,66.07
2024-02-19T08:11:38.353Z,68.63
2024-02-19T08:14:07.920Z,68.80
2024-02-19T08:16:36.630Z,66.47
2024-02-19T08:19:05.537Z,74.40
2024-02-19T08:21:33.662Z,78.30
2024-02-19T08:24:01.797Z,76.50
2024-02-19T08:26:29.876Z,73.10
2024-02-19T08:28:57.957Z,77.00
2024-02-19T08:31:28.763Z,80.70
2024-02-19T08:33:57.277Z,80.83
2024-02-19T08:36:25.716Z,81.07
2024-02-19T08:38:54.434Z,79.90
2024-02-19T08:41:22.713Z,75.50
2024-02-19T08:43:50.816Z,83.90
2024-02-19T08:46:18.980Z,85.10
2024-02-19T08:48:49.684Z,88.50
2024-02-19T08:51:18.395Z,91.37
2024-02-19T08:53:51.295Z,94.57
2024-02-19T08:56:22.016Z,88.97
2024-02-19T08:58:50.119Z,98.90
2024-02-19T09:01:20.535Z,85.53
2024-02-19T09:03:50.360Z,88.17
2024-02-19T09:06:18.629Z,94.47
2024-02-19T09:08:46.748Z,97.47
2024-02-19T09:11:14.940Z,86.63
2024-02-19T09:13:46.475Z,93.00
2024-02-19T09:16:16.659Z,93.77
2024-02-19T09:18:45.067Z,95.70
2024-02-19T09:21:14.598Z,88.00
2024-02-19T09:23:42.733Z,94.60
2024-02-19T09:26:14.953Z,91.13
2024-02-19T09:28:45.126Z,90.47
2024-02-19T09:31:13.511Z,95.33
2024-02-19T09:33:41.772Z,91.30
2024-02-19T09:36:13.363Z,99.97
2024-02-19T09:38:43.283Z,96.50
2024-02-19T09:41:11.388Z,98.03
2024-02-19T09:43:39.662Z,96.37
2024-02-19T09:46:15.421Z,100.50
2024-02-19T09:48:48.528Z,93.20
2024-02-19T09:51:29.376Z,91.60
2024-02-19T09:54:04.147Z,92.80
2024-02-19T09:56:32.248Z,94.13
2024-02-19T09:59:00.571Z,90.23
2024-02-19T10:01:28.768Z,95.10
2024-02-19T10:03:58.632Z,92.47
2024-02-19T10:06:35.463Z,94.93
2024-02-19T10:09:08.293Z,99.37
2024-02-19T10:11:36.797Z,102.57
2024-02-19T10:14:05.867Z,95.60
2024-02-19T10:16:34.134Z,91.63
2024-02-19T10:19:06.033Z,93.77
2024-02-19T10:21:34.548Z,92.90
2024-02-19T10:24:04.301Z,90.90
2024-02-19T10:26:32.502Z,95.67
2024-02-19T10:29:01.095Z,88.00
2024-02-19T10:31:30.851Z,91.03
2024-02-19T10:33:59.188Z,92.37
2024-02-19T10:36:27.718Z,89.70
2024-02-19T10:38:55.854Z,88.77
2024-02-19T10:41:25.855Z,86.70
2024-02-19T10:43:54.097Z,88.03
2024-02-19T10:46:22.986Z,83.77
2024-02-19T10:48:52.838Z,90.10
2024-02-19T10:51:21.357Z,84.80
2024-02-19T10:53:58.975Z,81.23
2024-02-19T10:56:36.937Z,86.20
2024-02-19T10:59:05.622Z,82.53
2024-02-19T11:01:44.372Z,88.67
2024-02-19T11:04:14.421Z,87.30
2024-02-19T11:06:46.566Z,84.50
2024-02-19T11:09:15.213Z,85.13
2024-02-19T11:11:49.050Z,82.47
2024-02-19T11:14:22.986Z,81.70
2024-02-19T11:16:52.253Z,80.37
2024-02-19T11:19:20.869Z,79.07
2024-02-19T11:21:49.185Z,83.90
2024-02-19T11:24:17.340Z,77.10
2024-02-19T11:26:47.899Z,77.73
2024-02-19T11:29:16.572Z,81.40
2024-02-19T11:31:45.331Z,80.40
2024-02-19T11:34:19.903Z,74.50
2024-02-19T11:36:48.407Z,74.43
2024-02-19T11:39:16.672Z,73.80
2024-02-19T11:41:45.075Z,77.63
2024-02-19T11:44:16.429Z,72.70
2024-02-19T11:46:44.886Z,70.13
2024-02-19T11:49:13.847Z,67.93
2024-02-19T11:51:42.668Z,68.80
2024-02-19T11:54:12.276Z,71.50
2024-02-19T11:56:45.165Z,68.70
2024-02-19T11:59:16.707Z,61.80
2024-02-19T12:01:46.185Z,61.97
2024-02-19T12:04:16.041Z,66.90
2024-02-19T12:06:45.015Z,59.37
2024-02-19T12:09:14.122Z,58.83
2024-02-19T12:11:42.892Z,65.13
2024-02-19T12:14:15.099Z,57.80
2024-02-19T12:16:43.231Z,74.87
2024-02-19T12:19:11.829Z,71.70
2024-02-19T12:21:43.337Z,61.93
2024-02-19T12:24:13.078Z,71.73
2024-02-19T12:26:41.157Z,64.70
2024-02-19T12:29:09.266Z,67.33
2024-02-19T12:31:38.772Z,69.90
2024-02-19T12:34:07.653Z,73.43
2024-02-19T12:36:36.751Z,71.73
2024-02-19T12:39:10.621Z,66.37
2024-02-19T12:41:39.510Z,66.60
2024-02-19T12:44:07.954Z,64.50
2024-02-19T12:46:36.104Z,63.83
2024-02-19T12:49:08.295Z,62.37
2024-02-19T12:51:37.081Z,65.97
2024-02-19T12:54:06.074Z,63.93
2024-02-19T12:56:34.170Z,62.07
2024-02-19T12:59:02.272Z,53.07
2024-02-19T13:01:33.743Z,55.80
2024-02-19T13:04:03.149Z,51.97
2024-02-19T13:06:33.242Z,53.17
2024-02-19T13:09:01.857Z,51.33
2024-02-19T13:11:30.083Z,55.37
2024-02-19T13:13:59.049Z,52.77
2024-02-19T13:16:28.885Z,51.87
2024-02-19T13:18:57.461Z,55.57
2024-02-19T13:21:25.661Z,59.13
2024-02-19T13:23:55.127Z,60.57
2024-02-19T13:26:23.306Z,60.97
2024-02-19T13:28:51.379Z,58.00
2024-02-19T13:31:19.636Z,55.97
2024-02-19T13:33:48.233Z,56.77
2024-02-19T13:36:17.474Z,54.10
2024-02-19T13:38:48.644Z,62.43
2024-02-19T13:41:18.342Z,50.77
2024-02-19T13:43:47.059Z,58.50
2024-02-19T13:46:17.698Z,56.83
2024-02-19T13:48:47.781Z,56.63
2024-02-19T13:51:17.048Z,53.57
2024-02-19T13:53:45.130Z,52.33
2024-02-19T13:56:13.215Z,51.87
2024-02-19T13:58:43.299Z,55.00
2024-02-19T14:01:11.858Z,53.77
2024-02-19T14:03:40.296Z,52.23
2024-02-19T14:06:08.673Z,51.20
2024-02-19T14:08:36.926Z,52.53
2024-02-19T14:11:05.314Z,50.57
2024-02-19T14:13:45.716Z,45.43
2024-02-19T14:16:21.183Z,48.37
2024-02-19T14:18:49.480Z,49.50
2024-02-19T14:21:17.622Z,45.77
2024-02-19T14:23:45.739Z,47.97
2024-02-19T14:26:13.837Z,44.10
2024-02-19T14:28:41.988Z,44.03
2024-02-19T14:31:10.292Z,44.60
2024-02-19T14:33:39.847Z,42.70
2024-02-19T14:36:08.510Z,43.90
2024-02-19T14:38:36.783Z,45.77
2024-02-19T14:41:05.597Z,46.30
2024-02-19T14:43:33.843Z,46.70
2024-02-19T14:46:05.003Z,47.90
2024-02-19T14:48:35.828Z,43.40
2024-02-19T14:51:06.907Z,42.27
2024-02-19T14:53:35.219Z,44.90
2024-02-19T14:56:03.882Z,44.67
2024-02-19T14:58:32.168Z,43.83
2024-02-19T15:01:00.424Z,44.20
2024-02-19T15:03:28.652Z,42.37
2024-02-19T15:05:56.808Z,42.53
2024-02-19T15:08:26.317Z,45.03
2024-02-19T15:10:54.504Z,44.93
2024-02-19T15:13:23.697Z,39.27
2024-02-19T15:15:52.192Z,39.23
2024-02-19T15:18:20.552Z,40.73
2024-02-19T15:20:49.560Z,42.83
2024-02-19T15:23:17.742Z,42.30
2024-02-19T15:25:47.282Z,43.07
2024-02-19T15:28:15.502Z,41.40
2024-02-19T15:30:43.973Z,40.37
2024-02-19T15:33:12.842Z,40.60
2024-02-19T15:35:41.008Z,39.27
2024-02-19T15:38:10.259Z,38.00
2024-02-19T15:40:40.249Z,42.80
2024-02-19T15:43:09.987Z,43.87
2024-02-19T15:45:39.348Z,44.53
2024-02-19T15:48:08.333Z,41.20
2024-02-19T15:50:36.514Z,40.40
2024-02-19T15:53:06.281Z,41.93
2024-02-19T15:55:35.361Z,41.80
2024-02-19T15:58:03.596Z,37.40
2024-02-19T16:00:36.827Z,39.30
2024-02-19T16:03:05.378Z,45.17
2024-02-19T16:05:34.586Z,38.63
2024-02-19T16:08:02.799Z,41.20
2024-02-19T16:10:32.150Z,37.33
2024-02-19T16:13:00.328Z,41.03
2024-02-19T16:15:28.438Z,37.37
2024-02-19T16:17:57.954Z,36.73
2024-02-19T16:20:26.141Z,37.27
2024-02-19T16:22:55.949Z,37.03
2024-02-19T16:25:24.188Z,34.40
2024-02-19T16:27:53.101Z,37.07
2024-02-19T16:30:21.221Z,37.93
2024-02-19T16:32:49.322Z,40.87
2024-02-19T16:35:18.992Z,38.80
2024-02-19T16:37:47.189Z,37.83
2024-02-19T16:40:15.504Z,38.57
2024-02-19T16:42:43.620Z,38.67
2024-02-19T16:45:11.905Z,40.17
2024-02-19T16:47:40.183Z,39.77
2024-02-19T16:50:08.917Z,39.60
2024-02-19T16:52:38.483Z,42.30
2024-02-19T16:55:08.780Z,38.80
2024-02-19T16:57:37.264Z,37.07
2024-02-19T17:00:06.962Z,38.80
2024-02-19T17:02:35.296Z,41.13
2024-02-19T17:05:04.263Z,39.43
2024-02-19T17:07:32.932Z,40.70
2024-02-19T17:10:05.117Z,36.70
2024-02-19T17:12:33.792Z,40.50
2024-02-19T17:15:02.049Z,40.17
2024-02-19T17:17:30.198Z,37.60
2024-02-19T17:19:58.367Z,40.90
2024-02-19T17:22:27.346Z,40.00
2024-02-19T17:24:55.598Z,44.00
2024-02-19T17:27:25.084Z,39.07
2024-02-19T17:29:53.224Z,40.17
2024-02-19T17:32:21.801Z,39.87
2024-02-19T17:34:52.419Z,37.40
2024-02-19T17:37:21.675Z,36.83
2024-02-19T17:39:50.578Z,35.47
2024-02-19T17:42:20.579Z,35.37
2024-02-19T17:44:50.041Z,34.27
2024-02-19T17:47:18.157Z,38.30
2024-02-19T17:49:46.406Z,43.50
2024-02-19T17:52:14.653Z,40.07
2024-02-19T17:54:42.777Z,37.30
2024-02-19T17:57:15.758Z,38.67
2024-02-19T17:59:44.043Z,39.50
2024-02-19T18:02:14.311Z,39.53
2024-02-19T18:04:47.452Z,38.57
2024-02-19T18:07:15.686Z,37.17
2024-02-19T18:09:43.825Z,37.73
2024-02-19T18:12:12.017Z,37.30
2024-02-19T18:14:40.075Z,39.87
2024-02-19T18:17:08.575Z,43.17
2024-02-19T18:19:38.087Z,42.40
2024-02-19T18:22:08.100Z,39.30
2024-02-19T18:24:36.246Z,38.73
2024-02-19T18:27:05.051Z,41.43
2024-02-19T18:29:34.140Z,39.70
2024-02-19T18:32:03.139Z,38.20
2024-02-19T18:34:32.240Z,38.97
2024-02-19T18:37:01.922Z,42.73
2024-02-19T18:39:33.035Z,41.47
2024-02-19T18:42:01.546Z,43.00
2024-02-19T18:44:30.066Z,42.50
2024-02-19T18:47:01.374Z,41.33
2024-02-19T18:49:32.823Z,40.43
2024-02-19T18:52:03.098Z,40.90
2024-02-19T18:54:32.261Z,43.03
2024-02-19T18:57:02.236Z,44.60
2024-02-19T18:59:31.730Z,43.70
2024-02-19T19:02:02.093Z,43.83
2024-02-19T19:04:30.517Z,44.93
2024-02-19T19:06:58.857Z,41.27
2024-02-19T19:09:28.360Z,44.57
2024-02-19T19:11:57.549Z,46.40
2024-02-19T19:14:25.633Z,40.50
2024-02-19T19:16:53.829Z,44.70
2024-02-19T19:19:22.260Z,43.33
2024-02-19T19:21:50.527Z,42.87
2024-02-19T19:24:18.655Z,46.43
2024-02-19T19:26:48.175Z,43.57
2024-02-19T19:29:16.272Z,44.23
2024-02-19T19:31:44.407Z,47.20
2024-02-19T19:34:12.995Z,48.70
2024-02-19T19:36:41.110Z,49.60
2024-02-19T19:39:09.742Z,48.83
2024-02-19T19:41:37.890Z,47.67
2024-02-19T19:44:07.465Z,49.63
2024-02-19T19:46:35.935Z,49.00
2024-02-19T19:49:05.847Z,47.20
2024-02-19T19:51:34.156Z,47.97
2024-02-19T19:54:02.275Z,48.47
2024-02-19T19:56:30.565Z,48.77
2024-02-19T19:58:59.579Z,53.73
2024-02-19T20:01:29.286Z,45.90
2024-02-19T20:03:57.438Z,46.57
2024-02-19T20:06:25.784Z,46.73
2024-02-19T20:08:54.656Z,48.20
2024-02-19T20:11:23.679Z,49.07
2024-02-19T20:13:52.080Z,48.50
2024-02-19T20:16:21.104Z,45.47
2024-02-19T20:18:50.750Z,47.60
2024-02-19T20:21:19.091Z,48.90
2024-02-19T20:23:47.175Z,49.00
2024-02-19T20:26:15.336Z,46.00
2024-02-19T20:28:43.431Z,46.63
2024-02-19T20:31:11.551Z,46.30
2024-02-19T20:33:39.937Z,46.30
2024-02-19T20:36:09.728Z,45.37
2024-02-19T20:38:38.457Z,53.60
2024-02-19T20:41:06.820Z,48.60
2024-02-19T20:43:36.428Z,50.97
2024-02-19T20:46:04.782Z,52.57
2024-02-19T20:48:33.149Z,51.00
2024-02-19T20:51:01.242Z,51.70
2024-02-19T20:53:30.729Z,53.27
2024-02-19T20:55:58.847Z,54.37
2024-02-19T20:58:27.499Z,53.63
2024-02-19T21:00:55.710Z,52.73
2024-02-19T21:03:32.203Z,52.93
2024-02-19T21:06:04.458Z,52.77
2024-02-19T21:08:34.021Z,51.77
2024-02-19T21:11:04.170Z,52.23
2024-02-19T21:13:32.354Z,56.37
2024-02-19T21:16:00.564Z,53.83
2024-02-19T21:18:34.664Z,50.57
2024-02-19T21:21:15.310Z,51.87
2024-02-19T21:23:47.589Z,52.50
2024-02-19T21:26:15.757Z,55.13
2024-02-19T21:28:44.220Z,54.23
2024-02-19T21:31:16.788Z,51.10
2024-02-19T21:33:45.095Z,54.30
2024-02-19T21:36:13.360Z,56.50
2024-02-19T21:38:41.689Z,52.17
2024-02-19T21:41:11.364Z,53.43
2024-02-19T21:43:39.800Z,57.37
2024-02-19T21:46:08.091Z,49.90
2024-02-19T21:48:36.367Z,51.43
2024-02-19T21:51:05.841Z,53.77
2024-02-19T21:53:34.077Z,54.90
2024-02-19T21:56:04.468Z,54.77
2024-02-19T21:58:34.128Z,55.50
2024-02-19T22:01:02.424Z,56.37
2024-02-19T22:03:31.975Z,55.30
2024-02-19T22:06:00.231Z,51.50
2024-02-19T22:08:28.377Z,50.57
2024-02-19T22:10:56.540Z,55.43
2024-02-19T22:13:24.894Z,51.67
2024-02-19T22:15:55.378Z,55.90
2024-02-19T22:18:25.209Z,56.07
2024-02-19T22:20:53.651Z,50.70
2024-02-19T22:23:21.791Z,53.87
2024-02-19T22:25:50.233Z,53.40
2024-02-19T22:28:18.777Z,53.90
2024-02-19T22:30:47.202Z,52.60
2024-02-19T22:33:16.737Z,54.13
2024-02-19T22:35:45.008Z,53.83
2024-02-19T22:38:13.128Z,52.50
2024-02-19T22:40:42.901Z,52.40
2024-02-19T22:43:12.272Z,51.33
2024-02-19T22:45:41.354Z,52.43
2024-02-19T22:48:10.935Z,51.70
2024-02-19T22:50:41.628Z,54.73
2024-02-19T22:53:10.004Z,53.47
2024-02-19T22:55:38.271Z,54.30
2024-02-19T22:58:06.646Z,54.00
2024-02-19T23:00:37.209Z,52.17
2024-02-19T23:03:07.105Z,53.73
2024-02-19T23:05:35.716Z,50.60
2024-02-19T23:08:06.403Z,55.10
2024-02-19T23:10:34.650Z,49.80
2024-02-19T23:13:03.097Z,53.97
2024-02-19T23:15:31.212Z,53.50
2024-02-19T23:18:01.158Z,50.40
2024-02-19T23:20:29.334Z,49.80
2024-02-19T23:22:57.585Z,51.23
2024-02-19T23:25:27.153Z,49.07
2024-02-19T23:27:55.487Z,55.20
2024-02-19T23:30:23.717Z,56.53
2024-02-19T23:32:51.855Z,52.43
2024-02-19T23:35:20.231Z,56.80
2024-02-19T23:37:48.808Z,58.30
2024-02-19T23:40:18.529Z,55.83
2024-02-19T23:42:48.687Z,50.17
2024-02-19T23:45:16.910Z,55.50
2024-02-19T23:47:45.541Z,53.70
2024-02-19T23:50:13.865Z,49.73
2024-02-19T23:52:42.351Z,52.97
2024-02-19T23:55:13.566Z,52.50
2024-02-19T23:57:41.880Z,53.97
